Time;durP1;ratioP1;P1;durP2;ratioP2;P2;SDS_P1;SDS_P2;PMS_P1;PMS_P2;Temp;Humidity;BMP_temperature;BMP_pressure;BME280_temperature;BME280_humidity;BME280_pressure;Samples;Min_cycle;Max_cycle;Signal;HPM_P1;HPM_P2
2022/01/23 00:01:09;;;;;;;27.65;23.02;;;6.30;99.90;;;;;;5115061;28;20246;-56
2022/01/23 00:03:35;;;;;;;25.65;23.00;;;6.40;99.90;;;;;;5114962;28;20152;-56
2022/01/23 00:06:00;;;;;;;25.10;22.23;;;6.40;99.90;;;;;;5114912;28;20188;-56
2022/01/23 00:08:26;;;;;;;26.83;23.13;;;6.40;99.90;;;;;;5096552;28;20204;-55
2022/01/23 00:10:53;;;;;;;27.85;24.80;;;6.40;99.90;;;;;;5114858;28;20503;-55
2022/01/23 00:13:32;;;;;;;27.80;24.80;;;6.40;99.90;;;;;;5114411;28;20642;-57
2022/01/23 00:18:42;;;;;;;29.25;23.80;;;6.50;99.90;;;;;;5114756;28;20214;-56
2022/01/23 00:21:08;;;;;;;29.38;23.88;;;6.40;99.90;;;;;;5114878;28;20589;-57
2022/01/23 00:30:20;;;;;;;27.95;24.00;;;6.50;99.90;;;;;;5113324;28;20177;-55
2022/01/23 00:31:50;;;;;;;27.98;22.67;;;6.40;99.90;;;;;;5114460;28;20533;-56
2022/01/23 00:34:16;;;;;;;26.65;22.25;;;6.40;99.90;;;;;;5114334;28;20181;-56
2022/01/23 00:36:41;;;;;;;27.05;24.33;;;6.40;99.90;;;;;;5114185;28;20239;-56
2022/01/23 00:39:07;;;;;;;27.27;21.92;;;6.40;99.90;;;;;;5112677;28;20184;-55
2022/01/23 00:41:33;;;;;;;27.05;24.15;;;6.40;99.90;;;;;;5113781;28;20569;-56
2022/01/23 00:43:59;;;;;;;26.90;22.23;;;6.40;99.90;;;;;;5113909;28;20199;-55
2022/01/23 00:46:32;;;;;;;26.17;23.38;;;6.40;99.90;;;;;;5114053;28;20266;-55
2022/01/23 00:51:32;;;;;;;25.65;22.95;;;6.30;99.90;;;;;;5114157;28;20178;-56
2022/01/23 00:53:59;;;;;;;25.52;22.88;;;6.40;99.90;;;;;;5114178;28;20200;-56
2022/01/23 00:56:26;;;;;;;24.85;22.10;;;6.40;99.90;;;;;;5113700;28;20566;-56
2022/01/23 00:58:51;;;;;;;24.65;21.98;;;6.40;99.90;;;;;;5112702;28;20204;-56
2022/01/23 01:01:18;;;;;;;29.80;23.65;;;6.40;99.90;;;;;;5113984;28;20177;-56
2022/01/23 01:03:44;;;;;;;26.10;23.05;;;6.40;99.90;;;;;;5114261;28;20569;-57
2022/01/23 01:06:11;;;;;;;26.88;23.63;;;6.40;99.90;;;;;;5113628;28;20623;-56
2022/01/23 01:08:36;;;;;;;27.98;23.27;;;6.40;99.90;;;;;;5112618;28;20655;-56
2022/01/23 01:13:41;;;;;;;27.23;22.77;;;6.40;99.90;;;;;;5113922;28;20180;-55
2022/01/23 01:32:52;;;;;;;28.98;22.95;;;6.30;99.90;;;;;;5113768;28;20173;-57
2022/01/23 01:37:43;;;;;;;30.17;22.48;;;6.20;99.90;;;;;;5113623;28;20208;-57
2022/01/23 01:40:09;;;;;;;24.45;21.83;;;6.20;99.90;;;;;;5113601;28;20199;-56
2022/01/23 01:42:35;;;;;;;26.40;21.92;;;6.30;99.90;;;;;;5113636;28;20239;-56
2022/01/23 01:45:01;;;;;;;28.38;21.50;;;6.20;99.90;;;;;;5113339;28;20208;-56
2022/01/23 01:47:26;;;;;;;24.98;21.10;;;6.30;99.90;;;;;;5113745;28;20181;-56
2022/01/23 01:49:52;;;;;;;25.85;20.85;;;6.30;99.90;;;;;;5113868;28;20184;-55
2022/01/23 01:52:18;;;;;;;24.25;21.60;;;6.30;99.90;;;;;;5114409;28;20168;-56
2022/01/23 01:54:43;;;;;;;25.08;20.17;;;6.30;99.90;;;;;;5117486;28;20173;-57
2022/01/23 01:57:10;;;;;;;25.52;21.60;;;6.30;99.90;;;;;;5117378;28;20604;-55
2022/01/23 02:10:28;;;;;;;26.73;21.35;;;6.20;99.90;;;;;;5116938;28;20167;-56
2022/01/23 02:18:03;;;;;;;25.88;22.90;;;6.20;99.90;;;;;;5116564;28;20235;-57
2022/01/23 02:50:48;;;;;;;28.80;21.95;;;6.20;99.90;;;;;;5116418;28;20687;-55
2022/01/23 02:53:33;;;;;;;28.92;22.60;;;6.20;99.90;;;;;;5116362;28;20825;-56
2022/01/23 02:56:00;;;;;;;30.15;23.60;;;6.20;99.90;;;;;;5115323;28;20168;-56
2022/01/23 02:58:33;;;;;;;26.13;23.02;;;6.20;99.90;;;;;;5115930;28;20173;-55
2022/01/23 03:01:09;;;;;;;28.33;23.05;;;6.10;99.90;;;;;;5116217;28;20216;-57
2022/01/23 03:03:45;;;;;;;26.92;22.80;;;6.20;99.90;;;;;;5116094;28;20518;-55
2022/01/23 03:14:19;;;;;;;28.40;22.67;;;6.00;99.90;;;;;;5116044;27;20199;-55
2022/01/23 03:25:08;;;;;;;26.83;21.73;;;6.20;99.90;;;;;;5115788;28;20156;-55
2022/01/23 03:32:44;;;;;;;29.88;24.15;;;6.00;99.90;;;;;;5115225;28;20177;-55
2022/01/23 03:35:10;;;;;;;26.73;23.05;;;6.10;99.90;;;;;;5114306;28;20548;-55
2022/01/23 03:37:36;;;;;;;28.00;24.13;;;6.10;99.90;;;;;;5115371;28;20192;-56
2022/01/23 03:40:03;;;;;;;32.80;25.38;;;6.10;99.90;;;;;;5114138;28;20187;-55
2022/01/23 03:42:31;;;;;;;28.70;24.17;;;6.10;99.90;;;;;;5115333;28;20178;-55
2022/01/23 03:45:27;;;;;;;28.42;23.75;;;6.10;99.90;;;;;;5115530;28;20181;-55
2022/01/23 03:50:32;;;;;;;27.25;24.17;;;6.20;99.90;;;;;;5115276;28;20254;-56
2022/01/23 03:52:58;;;;;;;30.65;24.33;;;6.10;99.90;;;;;;5114859;28;20169;-55
2022/01/23 03:55:24;;;;;;;27.48;24.38;;;6.00;99.90;;;;;;5115113;28;20176;-55
2022/01/23 03:57:49;;;;;;;30.27;23.83;;;6.10;99.90;;;;;;5114887;28;20206;-55
2022/01/23 04:00:17;;;;;;;28.67;22.42;;;6.10;99.90;;;;;;5115305;28;20173;-55
2022/01/23 04:02:43;;;;;;;27.10;23.80;;;6.10;99.90;;;;;;5115001;28;20168;-56
2022/01/23 04:05:09;;;;;;;28.75;24.27;;;6.10;99.90;;;;;;5114620;28;20252;-56
2022/01/23 04:07:36;;;;;;;29.10;21.05;;;6.10;99.90;;;;;;5096649;28;20515;-55
2022/01/23 04:10:02;;;;;;;27.67;23.50;;;6.10;99.90;;;;;;5115163;28;20183;-55
2022/01/23 04:12:48;;;;;;;29.27;23.00;;;6.10;99.90;;;;;;5114763;28;20169;-56
2022/01/23 04:45:19;;;;;;;30.85;24.50;;;6.10;99.90;;;;;;5114273;28;20164;-55
2022/01/23 05:01:43;;;;;;;30.90;22.90;;;6.00;99.90;;;;;;5113063;28;20245;-56
2022/01/23 05:04:15;;;;;;;28.73;22.80;;;6.00;99.90;;;;;;5114039;28;20226;-55
2022/01/23 05:07:04;;;;;;;31.55;25.75;;;6.00;99.90;;;;;;5114076;28;20260;-55
2022/01/23 05:09:28;;;;;;;29.48;24.73;;;6.00;99.90;;;;;;5113153;28;20177;-55
2022/01/23 05:12:08;;;;;;;31.33;24.75;;;6.00;99.90;;;;;;5113904;28;20192;-56
2022/01/23 05:14:40;;;;;;;30.42;24.02;;;6.00;99.90;;;;;;5113846;28;20669;-55
2022/01/23 05:17:08;;;;;;;29.67;25.08;;;6.00;99.90;;;;;;5113756;28;20638;-55
2022/01/23 05:19:34;;;;;;;29.15;25.65;;;6.00;99.90;;;;;;5113795;28;20542;-56
2022/01/23 05:24:38;;;;;;;31.17;24.55;;;6.10;99.90;;;;;;5112724;28;20172;-56
2022/01/23 05:27:06;;;;;;;32.20;26.77;;;6.10;99.90;;;;;;5114615;28;20594;-55
2022/01/23 05:29:33;;;;;;;31.35;27.95;;;6.10;99.90;;;;;;5117973;28;20177;-57
2022/01/23 05:31:59;;;;;;;33.10;26.88;;;6.10;99.90;;;;;;5117910;27;20201;-56
2022/01/23 05:34:26;;;;;;;33.10;25.85;;;6.00;99.90;;;;;;5117838;28;20565;-56
2022/01/23 05:36:52;;;;;;;29.95;25.75;;;5.90;99.90;;;;;;5116475;28;20212;-55
2022/01/23 05:39:21;;;;;;;31.85;26.67;;;5.90;99.90;;;;;;5117499;28;20176;-56
2022/01/23 05:41:52;;;;;;;34.08;27.05;;;5.80;99.90;;;;;;5117741;28;20286;-55
2022/01/23 05:44:18;;;;;;;34.15;26.58;;;5.80;99.90;;;;;;5117464;28;20211;-55
2022/01/23 05:46:43;;;;;;;33.00;26.58;;;5.90;99.90;;;;;;5117331;28;20176;-55
2022/01/23 05:49:09;;;;;;;31.83;27.50;;;5.90;99.90;;;;;;5117335;28;20731;-56
2022/01/23 05:51:34;;;;;;;35.95;30.15;;;6.00;99.90;;;;;;5117299;28;20200;-56
2022/01/23 05:54:00;;;;;;;30.80;27.13;;;6.10;99.90;;;;;;5116272;28;20173;-55
2022/01/23 05:56:26;;;;;;;34.00;28.02;;;6.00;99.90;;;;;;5117054;28;20200;-55
2022/01/23 05:58:51;;;;;;;35.58;26.55;;;6.00;99.90;;;;;;5116203;28;20215;-55
2022/01/23 06:01:17;;;;;;;34.58;28.23;;;5.90;99.90;;;;;;5117308;28;20234;-56
2022/01/23 06:03:43;;;;;;;37.10;26.95;;;5.90;99.90;;;;;;5116923;28;20170;-55
2022/01/23 06:06:08;;;;;;;34.72;27.10;;;5.80;99.90;;;;;;5099010;28;20238;-56
2022/01/23 06:08:34;;;;;;;30.98;27.02;;;5.90;99.90;;;;;;5116964;28;20177;-55
2022/01/23 06:11:00;;;;;;;32.47;26.27;;;5.90;99.90;;;;;;5115886;28;20180;-53
2022/01/23 06:13:27;;;;;;;32.83;26.38;;;6.00;99.90;;;;;;5117132;28;20177;-55
2022/01/23 06:15:54;;;;;;;34.45;27.52;;;6.00;99.90;;;;;;5116814;28;20259;-56
2022/01/23 06:18:20;;;;;;;33.63;26.65;;;6.00;99.90;;;;;;5116921;28;20241;-54
2022/01/23 06:20:46;;;;;;;35.33;26.77;;;5.90;99.90;;;;;;5116733;28;20201;-55
2022/01/23 06:23:12;;;;;;;32.67;26.40;;;5.90;99.90;;;;;;5115942;28;20181;-56
2022/01/23 06:25:42;;;;;;;38.63;29.58;;;5.90;99.90;;;;;;5117409;28;20545;-55
2022/01/23 06:28:08;;;;;;;70.53;49.30;;;6.00;99.90;;;;;;5115554;28;20715;-57
2022/01/23 06:30:35;;;;;;;51.38;38.50;;;6.00;99.90;;;;;;5116776;28;20648;-55
2022/01/23 06:33:00;;;;;;;48.42;36.35;;;6.00;99.90;;;;;;5116463;28;20638;-55
2022/01/23 06:35:28;;;;;;;46.30;34.80;;;6.00;99.90;;;;;;5116660;28;20254;-55
2022/01/23 06:37:54;;;;;;;48.97;34.90;;;5.90;99.90;;;;;;5115753;28;20535;-55
2022/01/23 06:40:19;;;;;;;42.45;31.70;;;6.00;99.90;;;;;;5116644;28;20194;-55
2022/01/23 06:42:45;;;;;;;42.63;31.08;;;6.00;99.90;;;;;;5116538;28;20563;-57
2022/01/23 06:45:11;;;;;;;41.70;31.23;;;6.10;99.90;;;;;;5115203;28;20188;-56
2022/01/23 06:47:37;;;;;;;40.42;31.35;;;6.00;99.90;;;;;;5116651;28;20259;-57
2022/01/23 06:50:03;;;;;;;39.78;32.08;;;5.90;99.90;;;;;;5116135;28;20208;-56
2022/01/23 06:52:29;;;;;;;42.15;32.13;;;5.90;99.90;;;;;;5114830;28;20180;-56
2022/01/23 06:54:55;;;;;;;36.55;29.85;;;6.00;99.90;;;;;;5114880;28;20180;-57
2022/01/23 06:57:20;;;;;;;39.83;30.15;;;6.10;99.90;;;;;;5116111;28;20202;-56
2022/01/23 06:59:46;;;;;;;36.50;28.90;;;6.10;99.90;;;;;;5116108;28;20233;-56
2022/01/23 07:02:12;;;;;;;38.92;29.58;;;5.90;99.90;;;;;;5115754;28;20211;-57
2022/01/23 07:04:37;;;;;;;33.92;30.30;;;5.80;99.90;;;;;;5116260;28;20618;-56
2022/01/23 07:07:03;;;;;;;39.45;30.50;;;5.80;99.90;;;;;;5115926;28;20191;-57
2022/01/23 07:09:29;;;;;;;38.42;29.85;;;5.80;99.90;;;;;;5115773;28;20630;-56
2022/01/23 07:11:55;;;;;;;41.08;30.77;;;6.00;99.90;;;;;;5115689;28;20641;-56
2022/01/23 07:14:20;;;;;;;40.13;29.67;;;6.00;99.90;;;;;;5115813;28;20206;-57
2022/01/23 07:16:46;;;;;;;34.78;31.05;;;6.10;99.90;;;;;;5114111;28;20690;-56
2022/01/23 07:19:13;;;;;;;39.22;29.85;;;6.10;99.90;;;;;;5115760;28;20506;-57
2022/01/23 07:21:39;;;;;;;38.47;30.67;;;6.10;99.90;;;;;;5097511;28;20595;-57
2022/01/23 07:24:05;;;;;;;38.85;29.95;;;6.00;99.90;;;;;;5115718;28;20181;-56
2022/01/23 07:26:31;;;;;;;38.85;29.85;;;6.00;99.90;;;;;;5115306;28;20540;-57
2022/01/23 07:29:00;;;;;;;38.38;30.80;;;6.00;99.90;;;;;;5115528;28;20181;-57
2022/01/23 07:31:54;;;;;;;35.55;29.38;;;5.90;99.90;;;;;;5114037;27;20175;-57
2022/01/23 07:34:17;;;;;;;40.60;33.03;;;5.90;99.90;;;;;;5134521;27;20192;-56
2022/01/23 07:36:43;;;;;;;41.33;31.40;;;5.90;99.90;;;;;;5135823;27;20208;-57
2022/01/23 07:39:09;;;;;;;38.35;31.90;;;5.90;99.90;;;;;;5134321;27;20525;-56
2022/01/23 07:41:34;;;;;;;41.25;34.25;;;5.90;99.90;;;;;;5134809;27;20179;-56
2022/01/23 07:44:00;;;;;;;36.90;32.42;;;5.80;99.90;;;;;;5134543;27;20202;-56
2022/01/23 07:46:26;;;;;;;41.63;33.10;;;5.90;99.90;;;;;;5135301;27;20212;-56
2022/01/23 07:48:52;;;;;;;40.33;31.55;;;5.90;99.90;;;;;;5135372;27;20206;-55
2022/01/23 07:51:18;;;;;;;38.88;30.58;;;5.90;99.90;;;;;;5114601;28;20177;-56
2022/01/23 07:53:43;;;;;;;36.97;30.35;;;6.00;99.90;;;;;;5113924;28;20181;-56
2022/01/23 07:56:09;;;;;;;36.78;29.23;;;6.00;99.90;;;;;;5114455;28;20557;-57
2022/01/23 07:58:35;;;;;;;35.33;30.95;;;6.00;99.90;;;;;;5093078;28;20181;-56
2022/01/23 08:01:00;;;;;;;38.80;31.50;;;6.00;99.90;;;;;;5093965;28;20652;-55
2022/01/23 08:03:26;;;;;;;38.47;32.08;;;6.00;99.90;;;;;;5100005;27;20706;-57
2022/01/23 08:05:52;;;;;;;34.70;30.30;;;6.00;99.90;;;;;;5135486;27;20184;-56
2022/01/23 08:08:18;;;;;;;36.13;32.22;;;6.00;99.90;;;;;;5134083;27;20225;-56
2022/01/23 08:10:43;;;;;;;39.33;31.17;;;6.00;99.90;;;;;;5135602;27;20218;-56
2022/01/23 08:13:09;;;;;;;41.75;32.03;;;6.00;99.90;;;;;;5135859;27;20605;-56
2022/01/23 08:15:35;;;;;;;39.33;30.98;;;6.00;99.90;;;;;;5133763;27;20164;-58
2022/01/23 08:18:02;;;;;;;41.40;31.63;;;6.10;99.90;;;;;;5133469;27;20269;-56
2022/01/23 08:20:29;;;;;;;39.42;31.25;;;6.10;99.90;;;;;;5135147;27;20175;-56
2022/01/23 08:22:58;;;;;;;36.15;31.05;;;6.10;99.90;;;;;;5134824;27;20172;-57
2022/01/23 08:25:23;;;;;;;38.40;29.42;;;6.00;99.90;;;;;;5133918;27;20187;-56
2022/01/23 08:27:49;;;;;;;37.85;30.88;;;6.00;99.90;;;;;;5135007;27;20605;-56
2022/01/23 08:30:15;;;;;;;38.78;30.85;;;6.10;99.90;;;;;;5135011;27;20171;-56
2022/01/23 08:32:41;;;;;;;40.67;32.85;;;6.10;99.90;;;;;;5134628;27;20534;-56
2022/01/23 08:35:07;;;;;;;41.90;32.55;;;6.10;99.90;;;;;;5134790;27;20188;-57
2022/01/23 08:37:33;;;;;;;40.83;31.85;;;6.10;99.90;;;;;;5134767;27;20318;-56
2022/01/23 08:39:59;;;;;;;39.58;31.98;;;6.10;99.90;;;;;;5134957;27;20175;-56
2022/01/23 08:42:24;;;;;;;38.38;29.92;;;6.00;99.90;;;;;;5134718;27;20181;-55
2022/01/23 08:44:53;;;;;;;38.00;29.92;;;6.10;99.90;;;;;;5134722;27;20176;-55
2022/01/23 08:47:21;;;;;;;37.83;31.63;;;6.20;99.90;;;;;;5134789;27;20648;-57
2022/01/23 08:49:48;;;;;;;38.75;29.30;;;6.20;99.90;;;;;;5134678;27;20180;-55
2022/01/23 08:52:21;;;;;;;37.88;29.08;;;6.20;99.90;;;;;;5134555;27;20540;-56
2022/01/23 08:54:50;;;;;;;35.28;30.70;;;6.20;99.90;;;;;;5134540;27;20228;-57
2022/01/23 08:57:17;;;;;;;37.25;29.00;;;6.20;99.90;;;;;;5134522;27;20553;-55
2022/01/23 08:59:43;;;;;;;37.33;29.30;;;6.20;99.90;;;;;;5134466;27;20230;-57
2022/01/23 09:02:10;;;;;;;36.55;29.25;;;6.20;99.90;;;;;;5134346;27;20572;-56
2022/01/23 09:04:36;;;;;;;36.33;30.70;;;6.30;99.90;;;;;;5134315;27;20180;-56
2022/01/23 09:07:03;;;;;;;37.42;30.58;;;6.30;99.90;;;;;;5134491;27;20637;-58
2022/01/23 09:09:31;;;;;;;40.53;30.70;;;6.30;99.90;;;;;;5133100;28;20164;-57
2022/01/23 09:14:24;;;;;;;39.75;30.70;;;6.40;99.90;;;;;;5134435;27;20191;-60
2022/01/23 09:16:51;;;;;;;35.97;28.77;;;6.40;99.90;;;;;;5134226;27;20290;-60
2022/01/23 09:19:19;;;;;;;39.13;31.23;;;6.40;99.90;;;;;;5134030;27;20172;-60
2022/01/23 09:21:46;;;;;;;38.05;30.52;;;6.40;99.90;;;;;;5134333;27;20172;-59
2022/01/23 09:24:12;;;;;;;36.65;31.88;;;6.40;99.90;;;;;;5134326;27;20179;-60
2022/01/23 09:26:38;;;;;;;35.55;30.45;;;6.40;99.90;;;;;;5134351;27;20179;-58
2022/01/23 09:29:23;;;;;;;36.67;29.13;;;6.40;99.90;;;;;;5134282;28;20175;-59
2022/01/23 09:31:49;;;;;;;35.88;28.63;;;6.30;99.90;;;;;;5134376;27;20217;-59
2022/01/23 09:34:21;;;;;;;36.10;28.92;;;6.40;99.90;;;;;;5134118;27;20188;-59
2022/01/23 09:36:47;;;;;;;38.30;30.48;;;6.40;99.90;;;;;;5132704;28;20232;-58
2022/01/23 09:39:16;;;;;;;38.88;32.03;;;6.40;99.90;;;;;;5133026;28;20184;-59
2022/01/23 09:41:50;;;;;;;48.33;37.80;;;6.50;99.90;;;;;;5133004;28;20180;-59
2022/01/23 09:44:18;;;;;;;44.80;37.33;;;6.50;99.90;;;;;;5134611;27;20213;-58
2022/01/23 09:46:46;;;;;;;40.60;31.55;;;6.50;99.90;;;;;;5134235;27;20183;-60
2022/01/23 09:49:17;;;;;;;39.42;29.35;;;6.60;99.90;;;;;;5133746;27;20179;-59
2022/01/23 09:51:46;;;;;;;38.58;29.63;;;6.50;99.90;;;;;;5134017;27;20180;-59
2022/01/23 09:54:15;;;;;;;32.30;28.70;;;6.50;99.90;;;;;;5134056;27;20189;-59
2022/01/23 09:56:43;;;;;;;38.13;28.17;;;6.60;99.90;;;;;;5134013;27;20210;-60
2022/01/23 09:59:13;;;;;;;33.20;29.20;;;6.50;99.90;;;;;;5134019;27;20221;-59
2022/01/23 10:01:45;;;;;;;39.13;30.20;;;6.60;99.90;;;;;;5134711;27;20173;-59
2022/01/23 10:04:11;;;;;;;39.33;29.88;;;6.60;99.90;;;;;;5134039;27;20183;-54
2022/01/23 10:06:37;;;;;;;38.00;28.58;;;6.60;99.90;;;;;;5134235;28;20184;-54
2022/01/23 10:09:06;;;;;;;40.95;30.65;;;6.60;99.90;;;;;;5133832;28;20180;-58
2022/01/23 10:11:37;;;;;;;36.88;30.08;;;6.60;99.90;;;;;;5133809;27;20205;-58
2022/01/23 10:14:03;;;;;;;38.03;31.20;;;6.60;99.90;;;;;;5136166;27;20169;-58
2022/01/23 10:16:31;;;;;;;35.17;31.08;;;6.70;99.90;;;;;;5137057;27;20302;-58
2022/01/23 10:19:04;;;;;;;39.60;32.92;;;6.70;99.90;;;;;;5137583;27;20537;-58
2022/01/23 10:21:33;;;;;;;37.63;32.22;;;6.70;99.90;;;;;;5136747;27;20297;-58
2022/01/23 10:23:59;;;;;;;39.75;32.55;;;6.70;99.90;;;;;;5137178;27;20618;-58
2022/01/23 10:26:42;;;;;;;34.63;30.15;;;6.60;99.90;;;;;;5137548;27;20262;-58
2022/01/23 10:29:26;;;;;;;38.35;29.95;;;6.70;99.90;;;;;;5137477;27;20316;-58
2022/01/23 10:32:20;;;;;;;34.33;27.70;;;6.60;99.90;;;;;;5137359;27;20707;-59
2022/01/23 10:34:54;;;;;;;35.15;28.75;;;6.70;99.90;;;;;;5137246;27;20211;-58
2022/01/23 10:37:24;;;;;;;36.30;27.70;;;6.70;99.90;;;;;;5137128;27;20675;-58
2022/01/23 10:39:51;;;;;;;37.30;31.20;;;6.70;99.90;;;;;;5137210;27;20540;-58
2022/01/23 10:47:54;;;;;;;32.75;28.60;;;6.70;99.90;;;;;;5137340;27;20194;-58
2022/01/23 10:50:22;;;;;;;39.22;31.65;;;6.80;99.90;;;;;;5136960;27;20165;-58
2022/01/23 10:52:50;;;;;;;36.40;30.92;;;6.80;99.90;;;;;;5136954;27;20675;-58
2022/01/23 10:55:29;;;;;;;33.70;26.95;;;6.80;99.90;;;;;;5136901;27;20164;-58
2022/01/23 10:57:59;;;;;;;33.30;29.05;;;6.70;99.90;;;;;;5136606;27;20214;-58
2022/01/23 11:00:31;;;;;;;35.25;27.65;;;6.70;99.90;;;;;;5136725;27;20172;-58
2022/01/23 11:02:59;;;;;;;33.90;28.67;;;6.80;99.90;;;;;;5136649;27;20169;-58
2022/01/23 11:05:38;;;;;;;32.70;29.20;;;6.80;99.90;;;;;;5136274;27;20217;-58
2022/01/23 11:08:19;;;;;;;33.30;27.67;;;6.90;99.90;;;;;;5136701;27;20172;-58
2022/01/23 11:11:00;;;;;;;27.00;21.65;;;6.90;99.90;;;;;;5136694;27;20160;-58
2022/01/23 11:19:27;;;;;;;32.22;27.73;;;6.80;99.90;;;;;;5136486;27;20656;-58
2022/01/23 11:21:54;;;;;;;37.00;29.60;;;6.90;99.90;;;;;;5136337;27;20678;-58
2022/01/23 11:24:21;;;;;;;32.85;29.05;;;7.00;99.90;;;;;;5135313;27;20171;-58
2022/01/23 11:26:47;;;;;;;37.25;31.20;;;7.00;99.90;;;;;;5136031;27;20262;-58
2022/01/23 11:29:19;;;;;;;34.58;29.25;;;7.10;99.90;;;;;;5136250;27;20264;-58
2022/01/23 11:31:45;;;;;;;33.08;28.67;;;6.90;99.90;;;;;;5136220;27;20176;-58
2022/01/23 11:34:13;;;;;;;34.65;28.17;;;6.80;99.90;;;;;;5135682;27;20181;-58
2022/01/23 11:36:41;;;;;;;35.33;27.10;;;6.90;99.90;;;;;;5136068;27;20684;-58
2022/01/23 11:39:20;;;;;;;33.72;28.05;;;7.00;99.90;;;;;;5135931;27;20233;-58
2022/01/23 11:56:32;;;;;;;35.45;27.92;;;7.10;99.90;;;;;;5135466;27;20183;-57
2022/01/23 11:59:11;;;;;;;34.60;28.08;;;7.20;99.90;;;;;;5135630;27;20177;-58
2022/01/23 12:01:39;;;;;;;32.28;28.80;;;7.20;99.90;;;;;;5135489;27;20175;-58
2022/01/23 12:04:21;;;;;;;32.08;27.70;;;7.20;99.90;;;;;;5135495;27;20259;-58
2022/01/23 12:07:08;;;;;;;34.83;27.73;;;7.10;99.90;;;;;;5135408;27;20229;-58
2022/01/23 12:09:34;;;;;;;33.83;28.15;;;7.10;99.90;;;;;;5135309;27;20176;-57
2022/01/23 12:17:22;;;;;;;32.55;26.75;;;7.20;99.90;;;;;;5133585;27;20225;-58
2022/01/23 12:19:58;;;;;;;35.08;28.65;;;7.30;99.90;;;;;;5135136;27;20187;-58
2022/01/23 12:22:25;;;;;;;33.85;26.88;;;7.30;99.90;;;;;;5135143;27;20662;-58
2022/01/23 12:24:56;;;;;;;34.15;28.25;;;7.30;99.90;;;;;;5135102;27;20169;-58
2022/01/23 12:27:24;;;;;;;32.67;28.33;;;7.30;99.90;;;;;;5135408;27;20161;-58
2022/01/23 12:29:51;;;;;;;32.97;27.83;;;7.30;99.90;;;;;;5135023;27;20179;-58
2022/01/23 12:32:26;;;;;;;31.98;28.30;;;7.30;99.90;;;;;;5135044;27;20192;-58
2022/01/23 12:34:54;;;;;;;32.53;28.67;;;7.30;99.90;;;;;;5135011;27;20510;-58
2022/01/23 12:37:19;;;;;;;33.88;27.77;;;7.20;99.90;;;;;;5134204;27;20234;-58
2022/01/23 12:40:05;;;;;;;34.90;31.10;;;7.30;99.90;;;;;;5133792;27;20204;-58
2022/01/23 12:43:08;;;;;;;34.17;29.67;;;7.40;99.90;;;;;;5134446;27;20179;-57
2022/01/23 12:45:54;;;;;;;31.83;28.40;;;7.40;99.90;;;;;;5134726;27;20182;-58
2022/01/23 12:48:43;;;;;;;34.20;27.98;;;7.30;99.90;;;;;;5134791;27;20256;-58
2022/01/23 12:51:12;;;;;;;31.52;28.08;;;7.40;99.90;;;;;;5134706;27;20159;-58
2022/01/23 12:54:08;;;;;;;35.00;28.30;;;7.40;99.90;;;;;;5134646;27;20174;-57
2022/01/23 12:56:42;;;;;;;36.90;30.95;;;7.40;99.90;;;;;;5134604;27;20159;-58
2022/01/23 12:59:11;;;;;;;36.15;30.60;;;7.40;99.90;;;;;;5134686;27;20178;-58
2022/01/23 13:01:41;;;;;;;35.83;30.65;;;7.40;99.90;;;;;;5134445;27;20172;-58
2022/01/23 13:04:08;;;;;;;34.55;30.20;;;7.40;99.90;;;;;;5134446;27;20254;-58
2022/01/23 13:06:52;;;;;;;36.28;29.95;;;7.40;99.90;;;;;;5134157;27;20537;-58
2022/01/23 13:09:28;;;;;;;33.72;30.13;;;7.50;99.90;;;;;;5134455;27;20245;-58
2022/01/23 13:14:43;;;;;;;33.00;29.38;;;7.40;99.90;;;;;;5134700;27;20188;-57
2022/01/23 13:31:06;;;;;;;36.15;29.60;;;7.30;99.90;;;;;;5134954;28;20171;-58
2022/01/23 13:33:32;;;;;;;35.40;29.73;;;7.30;99.90;;;;;;5137496;27;20556;-58
2022/01/23 13:36:01;;;;;;;32.63;28.83;;;7.30;99.90;;;;;;5135291;28;20183;-57
2022/01/23 13:38:32;;;;;;;32.70;29.30;;;7.40;99.90;;;;;;5134409;27;20710;-57
2022/01/23 13:41:05;;;;;;;35.45;29.58;;;7.30;99.90;;;;;;5134338;27;20164;-58
2022/01/23 14:02:27;;;;;;;33.83;29.90;;;7.40;99.90;;;;;;5137974;27;20494;-57
2022/01/23 14:05:13;;;;;;;35.00;31.30;;;7.40;99.90;;;;;;5137875;27;20165;-58
2022/01/23 14:07:54;;;;;;;32.95;29.00;;;7.40;99.90;;;;;;5137826;27;20187;-57
2022/01/23 14:10:37;;;;;;;35.28;29.02;;;7.40;99.90;;;;;;5137864;27;20160;-58
2022/01/23 14:13:08;;;;;;;34.15;30.58;;;7.40;99.90;;;;;;5137900;27;20157;-58
2022/01/23 14:15:34;;;;;;;35.30;30.58;;;7.40;99.90;;;;;;5136266;27;20206;-57
2022/01/23 14:18:09;;;;;;;35.85;30.38;;;7.40;99.90;;;;;;5137705;27;20219;-57
2022/01/23 14:20:54;;;;;;;33.45;29.85;;;7.40;99.90;;;;;;5137797;27;20195;-58
2022/01/23 14:23:20;;;;;;;34.10;30.45;;;7.40;99.90;;;;;;5137568;27;20574;-57
2022/01/23 14:25:49;;;;;;;34.42;30.08;;;7.30;99.90;;;;;;5137415;27;20180;-57
2022/01/23 14:28:19;;;;;;;32.95;29.35;;;7.30;99.90;;;;;;5137407;27;20173;-57
2022/01/23 14:30:55;;;;;;;32.63;28.33;;;7.20;99.90;;;;;;5137135;27;20674;-57
2022/01/23 14:33:32;;;;;;;34.75;28.30;;;7.30;99.90;;;;;;5137017;27;20156;-57
2022/01/23 14:35:58;;;;;;;32.85;28.77;;;7.30;99.90;;;;;;5137349;27;20202;-57
2022/01/23 14:38:27;;;;;;;33.45;29.95;;;7.30;99.90;;;;;;5137229;27;20208;-58
2022/01/23 14:40:59;;;;;;;33.95;30.33;;;7.30;99.90;;;;;;5136806;27;20584;-57
2022/01/23 14:43:37;;;;;;;33.15;29.25;;;7.20;99.90;;;;;;5137209;27;20165;-58
2022/01/23 14:46:06;;;;;;;36.35;28.42;;;7.20;99.90;;;;;;5137196;27;20175;-57
2022/01/23 14:48:40;;;;;;;33.58;28.90;;;7.30;99.90;;;;;;5137053;27;20180;-58
2022/01/23 14:51:06;;;;;;;37.75;30.73;;;7.30;99.90;;;;;;5137002;27;20172;-58
2022/01/23 14:53:35;;;;;;;36.50;29.95;;;7.30;99.90;;;;;;5136910;27;20175;-57
2022/01/23 14:56:04;;;;;;;33.75;30.02;;;7.30;99.90;;;;;;5136922;27;20167;-57
2022/01/23 14:58:31;;;;;;;37.80;30.55;;;7.30;99.90;;;;;;5136533;27;20212;-57
2022/01/23 15:00:58;;;;;;;32.95;28.65;;;7.20;99.90;;;;;;5136769;27;20566;-58
2022/01/23 15:03:25;;;;;;;60.83;37.80;;;7.20;99.90;;;;;;5136750;27;20634;-58
2022/01/23 15:05:52;;;;;;;38.22;32.00;;;7.20;99.90;;;;;;5136752;27;20245;-57
2022/01/23 15:08:24;;;;;;;35.97;29.83;;;7.20;99.90;;;;;;5136695;27;20244;-58
2022/01/23 15:10:52;;;;;;;35.40;29.00;;;7.10;99.90;;;;;;5136756;27;20171;-58
2022/01/23 15:13:19;;;;;;;34.03;30.08;;;7.20;99.90;;;;;;5136295;27;20187;-58
2022/01/23 15:15:46;;;;;;;33.80;29.67;;;7.20;99.90;;;;;;5136440;27;20168;-58
2022/01/23 15:18:13;;;;;;;34.38;30.58;;;7.20;99.90;;;;;;5136945;27;20208;-58
2022/01/23 15:20:39;;;;;;;35.72;29.30;;;7.10;99.90;;;;;;5137843;27;20640;-57
2022/01/23 15:23:06;;;;;;;34.88;29.38;;;7.10;99.90;;;;;;5137091;27;20179;-57
2022/01/23 15:25:32;;;;;;;32.42;28.77;;;7.20;99.90;;;;;;5136318;27;20224;-58
2022/01/23 15:27:58;;;;;;;33.20;29.70;;;7.10;99.90;;;;;;5136241;27;20180;-58
2022/01/23 15:30:26;;;;;;;34.72;29.65;;;7.10;99.90;;;;;;5136254;27;20186;-58
2022/01/23 15:32:53;;;;;;;36.65;29.63;;;7.10;99.90;;;;;;5136121;27;20637;-58
2022/01/23 15:35:20;;;;;;;38.45;30.17;;;7.10;99.90;;;;;;5136120;27;20209;-58
2022/01/23 15:37:46;;;;;;;34.22;30.63;;;7.10;99.90;;;;;;5136097;27;20204;-58
2022/01/23 15:40:14;;;;;;;32.10;27.67;;;7.00;99.90;;;;;;5136028;27;20506;-58
2022/01/23 15:42:41;;;;;;;31.35;28.05;;;6.90;99.90;;;;;;5135972;27;20176;-58
2022/01/23 15:45:07;;;;;;;31.50;28.10;;;6.90;99.90;;;;;;5135907;27;20173;-58
2022/01/23 15:47:34;;;;;;;32.83;28.17;;;7.00;99.90;;;;;;5136105;27;20528;-58
2022/01/23 15:50:00;;;;;;;34.15;26.70;;;6.90;99.90;;;;;;5135823;27;20173;-58
2022/01/23 15:52:26;;;;;;;29.98;25.70;;;7.00;99.90;;;;;;5136042;27;20248;-58
2022/01/23 15:54:52;;;;;;;32.75;26.27;;;7.00;99.90;;;;;;5135426;27;20267;-58
2022/01/23 15:57:18;;;;;;;28.20;25.15;;;7.10;99.90;;;;;;5134443;27;20249;-58
2022/01/23 15:59:44;;;;;;;29.98;26.75;;;7.00;99.90;;;;;;5135648;27;20169;-58
2022/01/23 16:02:09;;;;;;;30.63;27.35;;;7.00;99.90;;;;;;5135792;27;20617;-57
2022/01/23 16:04:37;;;;;;;30.33;27.02;;;7.00;99.90;;;;;;5135498;27;20177;-58
2022/01/23 16:07:11;;;;;;;31.40;27.08;;;6.90;99.90;;;;;;5135493;27;20173;-58
2022/01/23 16:09:37;;;;;;;35.97;28.08;;;6.90;99.90;;;;;;5135422;27;20160;-58
2022/01/23 16:12:03;;;;;;;31.92;28.27;;;6.90;99.90;;;;;;5134717;27;20179;-57
2022/01/23 16:14:29;;;;;;;38.63;29.85;;;6.90;99.90;;;;;;5135330;27;20169;-58
2022/01/23 16:16:55;;;;;;;29.77;22.85;;;6.90;99.90;;;;;;5135215;27;20557;-58
2022/01/23 16:19:21;;;;;;;29.55;23.60;;;6.90;99.90;;;;;;5135296;27;20177;-58
2022/01/23 16:21:47;;;;;;;37.03;25.90;;;6.90;99.90;;;;;;5135204;27;20327;-58
2022/01/23 16:24:13;;;;;;;37.85;30.75;;;6.80;99.90;;;;;;5134881;27;20195;-58